KSEA/SEA METAR and TAF weather

Enter ICAO airport designator
Station Type Date Time Source
KSEA METAR 2022/01/29 10:53 UTC NOAA

KSEA 291053Z 16005KT 10SM SCT250 M01/M06 A3024 RMK AO2 SLP249 T10061056


Station Type Date Time Source
KSEA Decoded METAR 2022/01/29 10:53 UTC NOAA

SEATTLE-TACOMA INTERNATIONAL AIRPORT , WA, United States (KSEA) 47-27N 122-19W 136M
Jan 29, 2022 - 05:53 AM EST / 2022.01.29 1053 UTC
Wind: from the SSE (160 degrees) at 6 MPH (5 KT):0
Visibility: 10 mile(s):0
Sky conditions: partly cloudy
Temperature: 30.9 F (-0.6 C)
Windchill: 24 F (-4 C):1
Dew Point: 21.9 F (-5.6 C)
Relative Humidity: 68%
Pressure (altimeter): 30.24 in. Hg (1024 hPa)
ob: KSEA 291053Z 16005KT 10SM SCT250 M01/M06 A3024 RMK AO2 SLP249 T10061056
cycle: 11

Station Type Date Time Source
KSEA TAF 2022/01/29 09:03 UTC NOAA

TAF
AMD KSEA 290900Z 2909/3012 13004KT P6SM SCT250
FM291400 VRB03KT P6SM SCT002
FM291600 VRB03KT P6SM BKN200
FM292300 VRB03KT P6SM OVC100
FM300800 12006KT P6SM OVC050

Example: see airport list